sensor_id;sensor_type;location;lat;lon;timestamp;temperature;humidity
13332;DHT22;6735;51.456;12.626;2022-10-17T00:01:06;14.30;88.30
13332;DHT22;6735;51.456;12.626;2022-10-17T00:03:33;14.30;88.30
13332;DHT22;6735;51.456;12.626;2022-10-17T00:06:05;14.20;88.40
13332;DHT22;6735;51.456;12.626;2022-10-17T00:08:31;14.20;88.30
13332;DHT22;6735;51.456;12.626;2022-10-17T00:10:59;14.20;88.30
13332;DHT22;6735;51.456;12.626;2022-10-17T00:13:25;14.20;88.30
13332;DHT22;6735;51.456;12.626;2022-10-17T00:15:51;14.10;88.30
13332;DHT22;6735;51.456;12.626;2022-10-17T00:18:16;14.10;88.40
13332;DHT22;6735;51.456;12.626;2022-10-17T00:20:42;14.10;88.40
13332;DHT22;6735;51.456;12.626;2022-10-17T00:23:08;14.10;88.40
13332;DHT22;6735;51.456;12.626;2022-10-17T00:25:33;14.10;88.40
13332;DHT22;6735;51.456;12.626;2022-10-17T00:27:59;14.00;88.30
13332;DHT22;6735;51.456;12.626;2022-10-17T00:30:24;14.00;88.40
13332;DHT22;6735;51.456;12.626;2022-10-17T00:32:50;13.90;88.40
13332;DHT22;6735;51.456;12.626;2022-10-17T00:35:16;13.90;88.40
13332;DHT22;6735;51.456;12.626;2022-10-17T00:37:41;13.90;88.60
13332;DHT22;6735;51.456;12.626;2022-10-17T00:40:07;13.90;88.70
13332;DHT22;6735;51.456;12.626;2022-10-17T00:42:33;13.90;88.80
13332;DHT22;6735;51.456;12.626;2022-10-17T00:45:17;14.00;88.90
13332;DHT22;6735;51.456;12.626;2022-10-17T00:47:46;14.00;88.80
13332;DHT22;6735;51.456;12.626;2022-10-17T00:50:13;13.90;88.80
13332;DHT22;6735;51.456;12.626;2022-10-17T00:52:39;13.90;88.80
13332;DHT22;6735;51.456;12.626;2022-10-17T00:55:24;13.90;88.90
13332;DHT22;6735;51.456;12.626;2022-10-17T00:57:54;13.90;89.00
13332;DHT22;6735;51.456;12.626;2022-10-17T01:00:21;14.00;89.30
13332;DHT22;6735;51.456;12.626;2022-10-17T01:02:48;14.00;89.80
13332;DHT22;6735;51.456;12.626;2022-10-17T01:05:15;14.10;90.00
13332;DHT22;6735;51.456;12.626;2022-10-17T01:07:41;14.10;90.00
13332;DHT22;6735;51.456;12.626;2022-10-17T01:10:09;14.10;90.00
13332;DHT22;6735;51.456;12.626;2022-10-17T01:12:54;14.20;89.80
13332;DHT22;6735;51.456;12.626;2022-10-17T01:15:24;14.10;89.70
13332;DHT22;6735;51.456;12.626;2022-10-17T01:18:16;14.10;89.90
13332;DHT22;6735;51.456;12.626;2022-10-17T01:23:46;14.10;89.80
13332;DHT22;6735;51.456;12.626;2022-10-17T01:26:43;14.10;89.70
13332;DHT22;6735;51.456;12.626;2022-10-17T01:32:39;13.90;89.50
13332;DHT22;6735;51.456;12.626;2022-10-17T01:37:47;13.80;89.50
13332;DHT22;6735;51.456;12.626;2022-10-17T01:40:29;13.80;89.60
13332;DHT22;6735;51.456;12.626;2022-10-17T01:45:51;13.80;89.60
13332;DHT22;6735;51.456;12.626;2022-10-17T01:48:21;13.80;89.60
13332;DHT22;6735;51.456;12.626;2022-10-17T01:50:54;13.80;89.50
13332;DHT22;6735;51.456;12.626;2022-10-17T01:53:34;13.80;89.60
13332;DHT22;6735;51.456;12.626;2022-10-17T01:56:03;13.70;89.50
13332;DHT22;6735;51.456;12.626;2022-10-17T01:58:35;13.70;89.60
13332;DHT22;6735;51.456;12.626;2022-10-17T02:01:04;13.70;89.50
13332;DHT22;6735;51.456;12.626;2022-10-17T02:03:31;13.70;89.50
13332;DHT22;6735;51.456;12.626;2022-10-17T02:05:59;13.60;89.40
13332;DHT22;6735;51.456;12.626;2022-10-17T02:11:25;13.60;89.40
13332;DHT22;6735;51.456;12.626;2022-10-17T02:14:04;13.60;89.50
13332;DHT22;6735;51.456;12.626;2022-10-17T02:16:37;13.60;89.50
13332;DHT22;6735;51.456;12.626;2022-10-17T02:22:14;13.60;89.50
13332;DHT22;6735;51.456;12.626;2022-10-17T02:24:51;13.60;89.60
13332;DHT22;6735;51.456;12.626;2022-10-17T02:29:55;13.50;89.80
13332;DHT22;6735;51.456;12.626;2022-10-17T02:32:28;13.50;89.90
13332;DHT22;6735;51.456;12.626;2022-10-17T02:34:59;13.40;89.80
13332;DHT22;6735;51.456;12.626;2022-10-17T02:37:27;13.40;89.80
13332;DHT22;6735;51.456;12.626;2022-10-17T02:39:56;13.40;89.70
13332;DHT22;6735;51.456;12.626;2022-10-17T02:42:22;13.40;89.80
13332;DHT22;6735;51.456;12.626;2022-10-17T02:44:49;13.30;89.80
13332;DHT22;6735;51.456;12.626;2022-10-17T02:47:28;13.40;89.90
13332;DHT22;6735;51.456;12.626;2022-10-17T02:49:56;13.40;89.80
13332;DHT22;6735;51.456;12.626;2022-10-17T02:55:26;13.30;89.80
13332;DHT22;6735;51.456;12.626;2022-10-17T02:57:58;13.30;89.80
13332;DHT22;6735;51.456;12.626;2022-10-17T03:00:25;13.30;89.90
13332;DHT22;6735;51.456;12.626;2022-10-17T03:02:53;13.30;90.00
13332;DHT22;6735;51.456;12.626;2022-10-17T03:05:22;13.30;90.00
13332;DHT22;6735;51.456;12.626;2022-10-17T03:07:48;13.30;89.90
13332;DHT22;6735;51.456;12.626;2022-10-17T03:10:13;13.30;89.90
13332;DHT22;6735;51.456;12.626;2022-10-17T03:12:39;13.30;89.80
13332;DHT22;6735;51.456;12.626;2022-10-17T03:15:05;13.30;89.80
13332;DHT22;6735;51.456;12.626;2022-10-17T03:17:31;13.20;89.80
13332;DHT22;6735;51.456;12.626;2022-10-17T03:19:57;13.20;89.70
13332;DHT22;6735;51.456;12.626;2022-10-17T03:22:22;13.20;89.70
13332;DHT22;6735;51.456;12.626;2022-10-17T03:24:48;13.20;90.00
13332;DHT22;6735;51.456;12.626;2022-10-17T03:27:14;13.20;90.10
13332;DHT22;6735;51.456;12.626;2022-10-17T03:29:39;13.20;90.10
13332;DHT22;6735;51.456;12.626;2022-10-17T03:32:05;13.20;90.10
13332;DHT22;6735;51.456;12.626;2022-10-17T03:34:31;13.20;90.30
13332;DHT22;6735;51.456;12.626;2022-10-17T03:36:56;13.30;90.40
13332;DHT22;6735;51.456;12.626;2022-10-17T03:39:22;13.30;90.40
13332;DHT22;6735;51.456;12.626;2022-10-17T03:41:48;13.30;90.40
13332;DHT22;6735;51.456;12.626;2022-10-17T03:44:14;13.30;90.50
13332;DHT22;6735;51.456;12.626;2022-10-17T03:46:39;13.30;90.30
13332;DHT22;6735;51.456;12.626;2022-10-17T03:49:05;13.30;90.30
13332;DHT22;6735;51.456;12.626;2022-10-17T03:51:32;13.20;90.20
13332;DHT22;6735;51.456;12.626;2022-10-17T03:53:59;13.20;90.10
13332;DHT22;6735;51.456;12.626;2022-10-17T03:56:25;13.20;90.10
13332;DHT22;6735;51.456;12.626;2022-10-17T03:58:51;13.20;90.10
13332;DHT22;6735;51.456;12.626;2022-10-17T04:01:18;13.20;90.00
13332;DHT22;6735;51.456;12.626;2022-10-17T04:03:47;13.10;90.10
13332;DHT22;6735;51.456;12.626;2022-10-17T04:06:12;13.10;90.10
13332;DHT22;6735;51.456;12.626;2022-10-17T04:08:39;13.10;90.10
13332;DHT22;6735;51.456;12.626;2022-10-17T04:11:07;13.10;90.00
13332;DHT22;6735;51.456;12.626;2022-10-17T04:13:32;13.10;89.90
13332;DHT22;6735;51.456;12.626;2022-10-17T04:15:59;13.00;90.00
13332;DHT22;6735;51.456;12.626;2022-10-17T04:18:26;13.00;90.00
13332;DHT22;6735;51.456;12.626;2022-10-17T04:20:51;13.00;89.90
13332;DHT22;6735;51.456;12.626;2022-10-17T04:23:17;13.00;89.90
13332;DHT22;6735;51.456;12.626;2022-10-17T04:25:43;13.00;90.10
13332;DHT22;6735;51.456;12.626;2022-10-17T04:28:09;13.00;90.10
13332;DHT22;6735;51.456;12.626;2022-10-17T04:30:34;13.00;90.10
13332;DHT22;6735;51.456;12.626;2022-10-17T04:33:00;13.10;90.20
13332;DHT22;6735;51.456;12.626;2022-10-17T04:35:26;13.10;90.30
13332;DHT22;6735;51.456;12.626;2022-10-17T04:37:51;13.10;90.40
13332;DHT22;6735;51.456;12.626;2022-10-17T04:40:17;13.10;90.50
13332;DHT22;6735;51.456;12.626;2022-10-17T04:42:42;13.10;90.40
13332;DHT22;6735;51.456;12.626;2022-10-17T04:45:08;13.10;90.50
13332;DHT22;6735;51.456;12.626;2022-10-17T04:47:37;13.20;90.50
13332;DHT22;6735;51.456;12.626;2022-10-17T04:50:03;13.20;90.50
13332;DHT22;6735;51.456;12.626;2022-10-17T04:52:29;13.20;90.60
13332;DHT22;6735;51.456;12.626;2022-10-17T04:54:54;13.20;90.50
13332;DHT22;6735;51.456;12.626;2022-10-17T04:57:20;13.20;90.40
13332;DHT22;6735;51.456;12.626;2022-10-17T04:59:45;13.20;90.30
13332;DHT22;6735;51.456;12.626;2022-10-17T05:02:11;13.10;90.30
13332;DHT22;6735;51.456;12.626;2022-10-17T05:04:37;13.10;90.40
13332;DHT22;6735;51.456;12.626;2022-10-17T05:07:02;13.10;90.40
13332;DHT22;6735;51.456;12.626;2022-10-17T05:09:28;13.10;90.50
13332;DHT22;6735;51.456;12.626;2022-10-17T05:11:54;13.10;90.50
13332;DHT22;6735;51.456;12.626;2022-10-17T05:14:19;13.10;90.60
13332;DHT22;6735;51.456;12.626;2022-10-17T05:16:45;13.10;90.60
13332;DHT22;6735;51.456;12.626;2022-10-17T05:19:10;13.10;90.60
13332;DHT22;6735;51.456;12.626;2022-10-17T05:21:36;13.10;90.60
13332;DHT22;6735;51.456;12.626;2022-10-17T05:24:14;13.10;90.50
13332;DHT22;6735;51.456;12.626;2022-10-17T05:26:40;13.10;90.50
13332;DHT22;6735;51.456;12.626;2022-10-17T05:29:06;13.10;90.50
13332;DHT22;6735;51.456;12.626;2022-10-17T05:31:31;13.00;90.50
13332;DHT22;6735;51.456;12.626;2022-10-17T05:34:01;13.10;90.40
13332;DHT22;6735;51.456;12.626;2022-10-17T05:36:27;13.10;90.40
13332;DHT22;6735;51.456;12.626;2022-10-17T05:38:53;13.00;90.30
13332;DHT22;6735;51.456;12.626;2022-10-17T05:41:19;13.00;90.30
13332;DHT22;6735;51.456;12.626;2022-10-17T05:43:45;13.00;90.30
13332;DHT22;6735;51.456;12.626;2022-10-17T05:46:10;13.00;90.30
13332;DHT22;6735;51.456;12.626;2022-10-17T05:48:36;13.00;90.30
13332;DHT22;6735;51.456;12.626;2022-10-17T05:51:07;13.00;90.40
13332;DHT22;6735;51.456;12.626;2022-10-17T05:53:36;13.10;90.30
13332;DHT22;6735;51.456;12.626;2022-10-17T05:56:03;13.10;90.20
13332;DHT22;6735;51.456;12.626;2022-10-17T05:58:30;13.10;90.20
13332;DHT22;6735;51.456;12.626;2022-10-17T06:00:57;13.10;90.20
13332;DHT22;6735;51.456;12.626;2022-10-17T06:03:23;13.10;90.20
13332;DHT22;6735;51.456;12.626;2022-10-17T06:05:48;13.20;90.20
13332;DHT22;6735;51.456;12.626;2022-10-17T06:08:14;13.20;90.10
13332;DHT22;6735;51.456;12.626;2022-10-17T06:10:39;13.20;90.00
13332;DHT22;6735;51.456;12.626;2022-10-17T06:13:05;13.20;90.00
13332;DHT22;6735;51.456;12.626;2022-10-17T06:15:31;13.30;89.90
13332;DHT22;6735;51.456;12.626;2022-10-17T06:17:56;13.30;89.90
13332;DHT22;6735;51.456;12.626;2022-10-17T06:20:21;13.30;89.80
13332;DHT22;6735;51.456;12.626;2022-10-17T06:22:47;13.40;89.80
13332;DHT22;6735;51.456;12.626;2022-10-17T06:25:13;13.50;89.70
13332;DHT22;6735;51.456;12.626;2022-10-17T06:27:39;13.50;89.80
13332;DHT22;6735;51.456;12.626;2022-10-17T06:30:05;13.50;89.80
13332;DHT22;6735;51.456;12.626;2022-10-17T06:32:30;13.60;89.70
13332;DHT22;6735;51.456;12.626;2022-10-17T06:34:56;13.70;89.70
13332;DHT22;6735;51.456;12.626;2022-10-17T06:37:21;13.80;89.70
13332;DHT22;6735;51.456;12.626;2022-10-17T06:39:47;13.80;89.60
13332;DHT22;6735;51.456;12.626;2022-10-17T06:42:12;13.90;89.60
13332;DHT22;6735;51.456;12.626;2022-10-17T06:44:38;14.00;89.50
13332;DHT22;6735;51.456;12.626;2022-10-17T06:47:04;14.20;89.40
13332;DHT22;6735;51.456;12.626;2022-10-17T06:49:30;14.20;89.40
13332;DHT22;6735;51.456;12.626;2022-10-17T06:51:57;14.30;89.30
13332;DHT22;6735;51.456;12.626;2022-10-17T06:54:22;14.50;89.30
13332;DHT22;6735;51.456;12.626;2022-10-17T06:56:48;14.60;89.30
13332;DHT22;6735;51.456;12.626;2022-10-17T06:59:14;14.80;89.30
13332;DHT22;6735;51.456;12.626;2022-10-17T07:01:40;14.90;89.20
13332;DHT22;6735;51.456;12.626;2022-10-17T07:04:05;15.10;88.80
13332;DHT22;6735;51.456;12.626;2022-10-17T07:06:31;15.30;88.40
13332;DHT22;6735;51.456;12.626;2022-10-17T07:08:56;15.40;88.20
13332;DHT22;6735;51.456;12.626;2022-10-17T07:11:22;15.60;87.70
13332;DHT22;6735;51.456;12.626;2022-10-17T07:13:48;15.70;87.30
13332;DHT22;6735;51.456;12.626;2022-10-17T07:16:14;15.90;87.00
13332;DHT22;6735;51.456;12.626;2022-10-17T07:18:41;16.10;86.60
13332;DHT22;6735;51.456;12.626;2022-10-17T07:21:07;16.20;86.00
13332;DHT22;6735;51.456;12.626;2022-10-17T07:23:33;16.40;85.40
13332;DHT22;6735;51.456;12.626;2022-10-17T07:26:03;16.60;85.10
13332;DHT22;6735;51.456;12.626;2022-10-17T07:28:32;16.80;85.00
13332;DHT22;6735;51.456;12.626;2022-10-17T07:31:09;17.20;84.50
13332;DHT22;6735;51.456;12.626;2022-10-17T07:33:35;17.60;82.70
13332;DHT22;6735;51.456;12.626;2022-10-17T07:36:00;18.00;82.60
13332;DHT22;6735;51.456;12.626;2022-10-17T07:38:27;18.40;81.30
13332;DHT22;6735;51.456;12.626;2022-10-17T07:40:58;18.90;80.40
13332;DHT22;6735;51.456;12.626;2022-10-17T07:43:25;19.20;80.40
13332;DHT22;6735;51.456;12.626;2022-10-17T07:45:51;19.50;79.60
13332;DHT22;6735;51.456;12.626;2022-10-17T07:48:17;19.70;79.00
13332;DHT22;6735;51.456;12.626;2022-10-17T07:50:42;19.90;76.40
13332;DHT22;6735;51.456;12.626;2022-10-17T07:53:08;20.00;77.30
13332;DHT22;6735;51.456;12.626;2022-10-17T07:55:36;20.10;75.90
13332;DHT22;6735;51.456;12.626;2022-10-17T07:58:01;20.20;76.30
13332;DHT22;6735;51.456;12.626;2022-10-17T08:00:27;20.40;74.90
13332;DHT22;6735;51.456;12.626;2022-10-17T08:02:52;20.50;74.90
13332;DHT22;6735;51.456;12.626;2022-10-17T08:05:18;20.70;74.00
13332;DHT22;6735;51.456;12.626;2022-10-17T08:07:43;20.80;70.20
13332;DHT22;6735;51.456;12.626;2022-10-17T08:10:11;21.00;73.40
13332;DHT22;6735;51.456;12.626;2022-10-17T08:12:37;21.10;69.90
13332;DHT22;6735;51.456;12.626;2022-10-17T08:15:04;21.00;70.90
13332;DHT22;6735;51.456;12.626;2022-10-17T08:17:30;21.10;70.90
13332;DHT22;6735;51.456;12.626;2022-10-17T08:19:55;21.30;70.40
13332;DHT22;6735;51.456;12.626;2022-10-17T08:22:21;21.20;70.20
13332;DHT22;6735;51.456;12.626;2022-10-17T08:24:46;21.00;70.00
13332;DHT22;6735;51.456;12.626;2022-10-17T08:27:12;20.90;70.20
13332;DHT22;6735;51.456;12.626;2022-10-17T08:29:38;20.90;69.10
13332;DHT22;6735;51.456;12.626;2022-10-17T08:32:05;20.80;69.40
13332;DHT22;6735;51.456;12.626;2022-10-17T08:34:31;21.00;69.20
13332;DHT22;6735;51.456;12.626;2022-10-17T08:36:57;21.10;68.80
13332;DHT22;6735;51.456;12.626;2022-10-17T08:39:22;21.20;68.10
13332;DHT22;6735;51.456;12.626;2022-10-17T08:42:08;21.40;68.30
13332;DHT22;6735;51.456;12.626;2022-10-17T08:44:59;21.60;64.60
13332;DHT22;6735;51.456;12.626;2022-10-17T08:47:34;21.80;63.90
13332;DHT22;6735;51.456;12.626;2022-10-17T08:50:03;22.00;64.50
13332;DHT22;6735;51.456;12.626;2022-10-17T08:52:39;22.30;64.30
13332;DHT22;6735;51.456;12.626;2022-10-17T08:55:25;22.30;64.90
13332;DHT22;6735;51.456;12.626;2022-10-17T08:57:52;22.30;62.60
13332;DHT22;6735;51.456;12.626;2022-10-17T09:00:19;22.50;64.20
13332;DHT22;6735;51.456;12.626;2022-10-17T09:03:07;22.70;63.60
13332;DHT22;6735;51.456;12.626;2022-10-17T09:08:21;22.80;63.40
13332;DHT22;6735;51.456;12.626;2022-10-17T09:11:01;22.90;62.10
13332;DHT22;6735;51.456;12.626;2022-10-17T09:18:59;22.70;61.10
13332;DHT22;6735;51.456;12.626;2022-10-17T09:21:42;22.50;61.80
13332;DHT22;6735;51.456;12.626;2022-10-17T09:24:42;22.40;60.80
13332;DHT22;6735;51.456;12.626;2022-10-17T09:27:19;22.30;60.70
13332;DHT22;6735;51.456;12.626;2022-10-17T09:29:48;22.40;61.50
13332;DHT22;6735;51.456;12.626;2022-10-17T09:32:18;22.50;61.30
13332;DHT22;6735;51.456;12.626;2022-10-17T09:34:45;22.60;60.90
13332;DHT22;6735;51.456;12.626;2022-10-17T09:37:15;22.40;61.20
13332;DHT22;6735;51.456;12.626;2022-10-17T09:39:42;22.30;61.40
13332;DHT22;6735;51.456;12.626;2022-10-17T09:42:15;22.20;61.40
13332;DHT22;6735;51.456;12.626;2022-10-17T09:44:52;22.10;61.70
13332;DHT22;6735;51.456;12.626;2022-10-17T09:47:33;22.10;62.10
13332;DHT22;6735;51.456;12.626;2022-10-17T09:50:11;22.20;62.20
13332;DHT22;6735;51.456;12.626;2022-10-17T09:52:42;22.20;62.10
13332;DHT22;6735;51.456;12.626;2022-10-17T09:55:36;22.20;62.40
13332;DHT22;6735;51.456;12.626;2022-10-17T09:58:05;22.20;62.40
13332;DHT22;6735;51.456;12.626;2022-10-17T10:00:34;22.20;62.50
13332;DHT22;6735;51.456;12.626;2022-10-17T10:05:35;22.30;62.60
13332;DHT22;6735;51.456;12.626;2022-10-17T10:08:11;22.40;62.70
13332;DHT22;6735;51.456;12.626;2022-10-17T10:10:38;22.50;62.00
13332;DHT22;6735;51.456;12.626;2022-10-17T10:15:41;22.70;61.30
13332;DHT22;6735;51.456;12.626;2022-10-17T10:23:35;23.00;60.70
13332;DHT22;6735;51.456;12.626;2022-10-17T10:26:25;23.10;60.40
13332;DHT22;6735;51.456;12.626;2022-10-17T10:28:57;23.10;59.40
13332;DHT22;6735;51.456;12.626;2022-10-17T10:31:33;23.20;60.20
13332;DHT22;6735;51.456;12.626;2022-10-17T10:34:02;23.20;59.50
13332;DHT22;6735;51.456;12.626;2022-10-17T10:36:43;23.30;59.60
13332;DHT22;6735;51.456;12.626;2022-10-17T10:39:24;23.40;60.00
13332;DHT22;6735;51.456;12.626;2022-10-17T10:41:50;23.40;59.60
13332;DHT22;6735;51.456;12.626;2022-10-17T10:44:18;23.40;58.70
13332;DHT22;6735;51.456;12.626;2022-10-17T10:46:45;23.40;58.30
13332;DHT22;6735;51.456;12.626;2022-10-17T10:49:29;23.40;57.60
13332;DHT22;6735;51.456;12.626;2022-10-17T10:51:57;23.40;56.70
13332;DHT22;6735;51.456;12.626;2022-10-17T10:54:29;23.40;57.50
13332;DHT22;6735;51.456;12.626;2022-10-17T10:56:59;23.40;57.60
13332;DHT22;6735;51.456;12.626;2022-10-17T10:59:31;23.50;58.10
13332;DHT22;6735;51.456;12.626;2022-10-17T11:02:18;23.50;58.20
13332;DHT22;6735;51.456;12.626;2022-10-17T11:04:55;23.50;58.40
13332;DHT22;6735;51.456;12.626;2022-10-17T11:07:32;23.50;58.20
13332;DHT22;6735;51.456;12.626;2022-10-17T11:12:38;23.50;58.30
13332;DHT22;6735;51.456;12.626;2022-10-17T11:15:30;23.50;58.60
13332;DHT22;6735;51.456;12.626;2022-10-17T11:18:06;23.50;59.00
13332;DHT22;6735;51.456;12.626;2022-10-17T11:20:58;23.60;59.10
13332;DHT22;6735;51.456;12.626;2022-10-17T11:26:02;23.70;58.70
13332;DHT22;6735;51.456;12.626;2022-10-17T11:28:29;23.70;58.70
13332;DHT22;6735;51.456;12.626;2022-10-17T11:31:06;23.80;58.70
13332;DHT22;6735;51.456;12.626;2022-10-17T11:33:43;23.90;58.70
13332;DHT22;6735;51.456;12.626;2022-10-17T11:36:10;24.00;58.40
13332;DHT22;6735;51.456;12.626;2022-10-17T11:41:39;23.90;57.50
13332;DHT22;6735;51.456;12.626;2022-10-17T11:46:33;23.90;58.30
13332;DHT22;6735;51.456;12.626;2022-10-17T11:49:09;23.90;58.20
13332;DHT22;6735;51.456;12.626;2022-10-17T11:51:45;23.90;58.00
13332;DHT22;6735;51.456;12.626;2022-10-17T11:54:30;23.90;57.90
13332;DHT22;6735;51.456;12.626;2022-10-17T11:57:29;23.90;58.00
13332;DHT22;6735;51.456;12.626;2022-10-17T12:02:59;23.80;58.40
13332;DHT22;6735;51.456;12.626;2022-10-17T12:05:48;23.90;58.20
13332;DHT22;6735;51.456;12.626;2022-10-17T12:08:20;23.90;58.00
13332;DHT22;6735;51.456;12.626;2022-10-17T12:10:59;23.90;58.50
13332;DHT22;6735;51.456;12.626;2022-10-17T12:15:55;23.90;58.50
13332;DHT22;6735;51.456;12.626;2022-10-17T12:18:23;23.90;58.50
13332;DHT22;6735;51.456;12.626;2022-10-17T12:20:58;24.00;58.70
13332;DHT22;6735;51.456;12.626;2022-10-17T12:23:31;24.10;58.60
13332;DHT22;6735;51.456;12.626;2022-10-17T12:26:02;24.10;58.70
13332;DHT22;6735;51.456;12.626;2022-10-17T12:28:40;24.10;58.90
13332;DHT22;6735;51.456;12.626;2022-10-17T12:33:58;24.20;58.90
13332;DHT22;6735;51.456;12.626;2022-10-17T12:49:48;24.50;57.70
13332;DHT22;6735;51.456;12.626;2022-10-17T12:52:24;24.50;57.70
13332;DHT22;6735;51.456;12.626;2022-10-17T12:55:04;24.50;56.80
13332;DHT22;6735;51.456;12.626;2022-10-17T12:57:38;24.60;57.30
13332;DHT22;6735;51.456;12.626;2022-10-17T13:03:18;24.90;53.40
13332;DHT22;6735;51.456;12.626;2022-10-17T13:05:53;24.90;54.10
13332;DHT22;6735;51.456;12.626;2022-10-17T13:08:32;25.00;53.80
13332;DHT22;6735;51.456;12.626;2022-10-17T13:10:59;25.00;53.20
13332;DHT22;6735;51.456;12.626;2022-10-17T13:13:45;25.10;53.90
13332;DHT22;6735;51.456;12.626;2022-10-17T13:16:33;25.20;54.30
13332;DHT22;6735;51.456;12.626;2022-10-17T13:19:01;25.20;52.50
13332;DHT22;6735;51.456;12.626;2022-10-17T13:21:27;25.20;53.60
13332;DHT22;6735;51.456;12.626;2022-10-17T13:23:53;25.20;53.60
13332;DHT22;6735;51.456;12.626;2022-10-17T13:26:27;25.20;53.50
13332;DHT22;6735;51.456;12.626;2022-10-17T13:29:09;25.20;52.90
13332;DHT22;6735;51.456;12.626;2022-10-17T13:31:37;25.10;52.50
13332;DHT22;6735;51.456;12.626;2022-10-17T13:34:05;25.10;53.50
13332;DHT22;6735;51.456;12.626;2022-10-17T13:36:32;25.10;53.00
13332;DHT22;6735;51.456;12.626;2022-10-17T13:39:03;25.10;53.60
13332;DHT22;6735;51.456;12.626;2022-10-17T13:41:31;25.10;53.60
13332;DHT22;6735;51.456;12.626;2022-10-17T13:44:00;25.00;54.00
13332;DHT22;6735;51.456;12.626;2022-10-17T13:46:29;24.80;54.10
13332;DHT22;6735;51.456;12.626;2022-10-17T13:48:57;24.80;54.30
13332;DHT22;6735;51.456;12.626;2022-10-17T13:51:25;24.70;54.80
13332;DHT22;6735;51.456;12.626;2022-10-17T13:53:52;24.60;55.10
13332;DHT22;6735;51.456;12.626;2022-10-17T13:56:25;24.60;54.90
13332;DHT22;6735;51.456;12.626;2022-10-17T13:58:53;24.60;54.50
13332;DHT22;6735;51.456;12.626;2022-10-17T14:01:23;24.50;54.90
13332;DHT22;6735;51.456;12.626;2022-10-17T14:03:49;24.40;55.10
13332;DHT22;6735;51.456;12.626;2022-10-17T14:06:18;24.30;55.60
13332;DHT22;6735;51.456;12.626;2022-10-17T14:09:00;24.20;55.60
13332;DHT22;6735;51.456;12.626;2022-10-17T14:11:54;24.20;55.70
13332;DHT22;6735;51.456;12.626;2022-10-17T14:14:24;24.00;56.40
13332;DHT22;6735;51.456;12.626;2022-10-17T14:16:51;24.00;56.30
13332;DHT22;6735;51.456;12.626;2022-10-17T14:19:34;24.00;56.00
13332;DHT22;6735;51.456;12.626;2022-10-17T14:24:48;24.00;56.10
13332;DHT22;6735;51.456;12.626;2022-10-17T14:27:34;23.90;56.40
13332;DHT22;6735;51.456;12.626;2022-10-17T14:30:27;23.90;57.10
13332;DHT22;6735;51.456;12.626;2022-10-17T14:32:57;23.80;56.80
13332;DHT22;6735;51.456;12.626;2022-10-17T14:35:23;23.80;57.40
13332;DHT22;6735;51.456;12.626;2022-10-17T14:37:51;23.70;57.50
13332;DHT22;6735;51.456;12.626;2022-10-17T14:40:20;23.70;57.80
13332;DHT22;6735;51.456;12.626;2022-10-17T14:42:48;23.60;58.20
13332;DHT22;6735;51.456;12.626;2022-10-17T14:45:24;23.50;58.50
13332;DHT22;6735;51.456;12.626;2022-10-17T14:47:52;23.50;58.60
13332;DHT22;6735;51.456;12.626;2022-10-17T14:50:27;23.40;58.80
13332;DHT22;6735;51.456;12.626;2022-10-17T14:55:33;23.30;59.60
13332;DHT22;6735;51.456;12.626;2022-10-17T14:57:59;23.20;59.60
13332;DHT22;6735;51.456;12.626;2022-10-17T15:00:24;23.10;60.10
13332;DHT22;6735;51.456;12.626;2022-10-17T15:02:51;23.10;60.30
13332;DHT22;6735;51.456;12.626;2022-10-17T15:05:18;22.90;60.70
13332;DHT22;6735;51.456;12.626;2022-10-17T15:07:44;22.80;61.20
13332;DHT22;6735;51.456;12.626;2022-10-17T15:10:34;22.80;61.50
13332;DHT22;6735;51.456;12.626;2022-10-17T15:13:01;22.70;62.60
13332;DHT22;6735;51.456;12.626;2022-10-17T15:15:28;22.60;62.50
13332;DHT22;6735;51.456;12.626;2022-10-17T15:17:54;22.40;62.80
13332;DHT22;6735;51.456;12.626;2022-10-17T15:20:20;22.30;63.20
13332;DHT22;6735;51.456;12.626;2022-10-17T15:22:53;22.20;63.60
13332;DHT22;6735;51.456;12.626;2022-10-17T15:25:19;22.10;63.90
13332;DHT22;6735;51.456;12.626;2022-10-17T15:27:44;22.00;64.30
13332;DHT22;6735;51.456;12.626;2022-10-17T15:30:31;21.90;64.50
13332;DHT22;6735;51.456;12.626;2022-10-17T15:32:58;21.80;65.20
13332;DHT22;6735;51.456;12.626;2022-10-17T15:35:24;21.70;65.30
13332;DHT22;6735;51.456;12.626;2022-10-17T15:37:50;21.60;65.60
13332;DHT22;6735;51.456;12.626;2022-10-17T15:40:24;21.50;66.10
13332;DHT22;6735;51.456;12.626;2022-10-17T15:42:50;21.40;66.80
13332;DHT22;6735;51.456;12.626;2022-10-17T15:45:18;21.30;67.00
13332;DHT22;6735;51.456;12.626;2022-10-17T15:47:51;21.20;67.40
13332;DHT22;6735;51.456;12.626;2022-10-17T15:50:17;21.10;67.90
13332;DHT22;6735;51.456;12.626;2022-10-17T15:52:43;20.90;68.30
13332;DHT22;6735;51.456;12.626;2022-10-17T15:55:11;20.80;68.60
13332;DHT22;6735;51.456;12.626;2022-10-17T15:57:39;20.70;69.00
13332;DHT22;6735;51.456;12.626;2022-10-17T16:00:14;20.70;69.10
13332;DHT22;6735;51.456;12.626;2022-10-17T16:02:40;20.60;69.40
13332;DHT22;6735;51.456;12.626;2022-10-17T16:07:41;20.40;70.30
13332;DHT22;6735;51.456;12.626;2022-10-17T16:10:07;20.20;70.60
13332;DHT22;6735;51.456;12.626;2022-10-17T16:12:34;20.10;70.70
13332;DHT22;6735;51.456;12.626;2022-10-17T16:15:01;20.00;71.10
13332;DHT22;6735;51.456;12.626;2022-10-17T16:17:26;19.90;71.50
13332;DHT22;6735;51.456;12.626;2022-10-17T16:19:52;19.80;71.70
13332;DHT22;6735;51.456;12.626;2022-10-17T16:22:32;19.80;72.00
13332;DHT22;6735;51.456;12.626;2022-10-17T16:25:02;19.70;72.60
13332;DHT22;6735;51.456;12.626;2022-10-17T16:27:35;19.60;72.50
13332;DHT22;6735;51.456;12.626;2022-10-17T16:30:01;19.50;72.70
13332;DHT22;6735;51.456;12.626;2022-10-17T16:32:27;19.40;73.10
13332;DHT22;6735;51.456;12.626;2022-10-17T16:34:52;19.30;73.30
13332;DHT22;6735;51.456;12.626;2022-10-17T16:37:18;19.20;73.60
13332;DHT22;6735;51.456;12.626;2022-10-17T16:39:43;19.10;74.10
13332;DHT22;6735;51.456;12.626;2022-10-17T16:42:13;19.00;74.40
13332;DHT22;6735;51.456;12.626;2022-10-17T16:44:38;18.90;74.60
13332;DHT22;6735;51.456;12.626;2022-10-17T16:47:04;18.80;74.90
13332;DHT22;6735;51.456;12.626;2022-10-17T16:49:29;18.70;75.00
13332;DHT22;6735;51.456;12.626;2022-10-17T16:51:55;18.70;75.10
13332;DHT22;6735;51.456;12.626;2022-10-17T16:54:20;18.70;75.50
13332;DHT22;6735;51.456;12.626;2022-10-17T16:56:46;18.50;75.60
13332;DHT22;6735;51.456;12.626;2022-10-17T16:59:12;18.50;75.90
13332;DHT22;6735;51.456;12.626;2022-10-17T17:01:38;18.40;76.10
13332;DHT22;6735;51.456;12.626;2022-10-17T17:04:03;18.30;76.20
13332;DHT22;6735;51.456;12.626;2022-10-17T17:06:29;18.30;76.30
13332;DHT22;6735;51.456;12.626;2022-10-17T17:08:55;18.20;76.50
13332;DHT22;6735;51.456;12.626;2022-10-17T17:11:23;18.10;76.70